Terminal Aerodrome Forecast
Issued by NWS

Home | Current Version | Previous Version | Text Only | Print | Product List | Glossary On
Versions: 1 2 3 4 5 6 7 8 9 10 11 12 13 14 15 16 17 18 19 20 21 22
371
FTUS43 KDLH 120746 AAA
TAFBRD
TAF AMD
KBRD 120746Z 1208/1306 31010G17KT P6SM OVC027
     FM121000 33013G22KT P6SM SKC
     FM130000 32010G17KT P6SM SKC=

USA.gov is the U.S. government's official web portal to all federal, state and local government web resources and services.